SWR39I LSZS-LSZR
Flight info
| Callsign | SWR39I |
|---|---|
| Flight time | 0h 19m |
| Altitude | 16000 |
| Route | RONAG DCT 472417N0100357E |
| Aircraft | A320/M-SDE3FGHIRWY/LB1 |
Departure
| Time | 2026-04-25 09:13 |
|---|---|
| Airport | Engadin Airport (LSZS) |
Arrival
| Time | 2026-04-25 09:33 |
|---|---|
| Airport | Sankt Gallen Altenrhein Airport (LSZR) |
| Time | Latitude | Longitude | Altitude | Speed | Heading |
|---|---|---|---|---|---|
| 2026-04-25 08:56 | 46.53125 | 9.88012 | 5600 ft | 0 kts | 298° |
| 2026-04-25 09:09 | 46.53126 | 9.88008 | 5608 ft | 2 kts | 292° |
| 2026-04-25 09:09 | 46.53101 | 9.87990 | 5604 ft | 6 kts | 198° |
| 2026-04-25 09:09 | 46.53068 | 9.87965 | 5604 ft | 5 kts | 210° |
| 2026-04-25 09:10 | 46.53041 | 9.87944 | 5608 ft | 4 kts | 203° |
| 2026-04-25 09:10 | 46.53027 | 9.87943 | 5603 ft | 0 kts | 180° |
| 2026-04-25 09:11 | 46.53008 | 9.87945 | 5604 ft | 5 kts | 171° |
| 2026-04-25 09:11 | 46.52991 | 9.87979 | 5605 ft | 4 kts | 117° |
| 2026-04-25 09:11 | 46.52978 | 9.88015 | 5603 ft | 4 kts | 117° |
| 2026-04-25 09:12 | 46.52983 | 9.88041 | 5608 ft | 2 kts | 52° |
| 2026-04-25 09:12 | 46.52993 | 9.88049 | 5606 ft | 0 kts | 30° |
| 2026-04-25 09:12 | 46.52994 | 9.88049 | 5606 ft | 2 kts | 30° |
| 2026-04-25 09:12 | 46.53138 | 9.88167 | 5605 ft | 70 kts | 28° |
| 2026-04-25 09:13 | 46.53892 | 9.88776 | 5704 ft | 164 kts | 28° |
| 2026-04-25 09:13 | 46.54871 | 9.89619 | 7010 ft | 163 kts | 32° |
| 2026-04-25 09:13 | 46.55836 | 9.90520 | 7968 ft | 172 kts | 32° |
| 2026-04-25 09:13 | 46.56886 | 9.91526 | 8584 ft | 190 kts | 33° |
| 2026-04-25 09:14 | 46.58046 | 9.92664 | 9197 ft | 215 kts | 33° |
| 2026-04-25 09:14 | 46.59360 | 9.93972 | 9912 ft | 239 kts | 33° |
| 2026-04-25 09:14 | 46.60775 | 9.95337 | 10884 ft | 246 kts | 32° |
| 2026-04-25 09:14 | 46.62210 | 9.96693 | 11975 ft | 250 kts | 32° |
| 2026-04-25 09:15 | 46.63536 | 9.98384 | 13031 ft | 258 kts | 49° |
| 2026-04-25 09:15 | 46.64631 | 10.00536 | 13417 ft | 265 kts | 57° |
| 2026-04-25 09:15 | 46.65575 | 10.02831 | 13681 ft | 265 kts | 60° |
| 2026-04-25 09:15 | 46.66486 | 10.05167 | 13944 ft | 265 kts | 58° |
| 2026-04-25 09:16 | 46.67618 | 10.07292 | 14186 ft | 267 kts | 47° |
| 2026-04-25 09:16 | 46.68902 | 10.09259 | 14419 ft | 268 kts | 45° |
| 2026-04-25 09:16 | 46.70226 | 10.11193 | 14662 ft | 270 kts | 44° |
| 2026-04-25 09:16 | 46.71574 | 10.13119 | 14895 ft | 272 kts | 44° |
| 2026-04-25 09:17 | 46.74011 | 10.17311 | 15392 ft | 276 kts | 56° |
| 2026-04-25 09:17 | 46.75082 | 10.19648 | 15638 ft | 278 kts | 56° |
| 2026-04-25 09:17 | 46.76288 | 10.21838 | 15874 ft | 278 kts | 42° |
| 2026-04-25 09:18 | 46.77852 | 10.23487 | 15986 ft | 282 kts | 25° |
| 2026-04-25 09:18 | 46.79829 | 10.24444 | 16057 ft | 312 kts | 7° |
| 2026-04-25 09:18 | 46.82022 | 10.24563 | 16167 ft | 318 kts | 352° |
| 2026-04-25 09:18 | 46.84196 | 10.23969 | 16185 ft | 319 kts | 345° |
| 2026-04-25 09:19 | 46.86378 | 10.23293 | 16180 ft | 321 kts | 346° |
| 2026-04-25 09:19 | 46.88565 | 10.22627 | 16178 ft | 321 kts | 346° |
| 2026-04-25 09:19 | 46.90756 | 10.21962 | 16177 ft | 322 kts | 346° |
| 2026-04-25 09:19 | 46.92947 | 10.21294 | 16180 ft | 322 kts | 346° |
| 2026-04-25 09:20 | 46.95135 | 10.20624 | 16179 ft | 321 kts | 346° |
| 2026-04-25 09:20 | 46.97323 | 10.19957 | 16179 ft | 320 kts | 346° |
| 2026-04-25 09:20 | 46.99502 | 10.19290 | 16064 ft | 320 kts | 346° |
| 2026-04-25 09:20 | 47.01673 | 10.18624 | 15669 ft | 318 kts | 346° |
| 2026-04-25 09:21 | 47.03831 | 10.17960 | 15305 ft | 316 kts | 346° |
| 2026-04-25 09:21 | 47.05976 | 10.17299 | 14973 ft | 314 kts | 346° |
| 2026-04-25 09:21 | 47.08106 | 10.16641 | 14619 ft | 312 kts | 346° |
| 2026-04-25 09:21 | 47.10223 | 10.15988 | 14278 ft | 309 kts | 347° |
| 2026-04-25 09:22 | 47.12324 | 10.15338 | 13914 ft | 308 kts | 347° |
| 2026-04-25 09:22 | 47.14411 | 10.14694 | 13557 ft | 306 kts | 347° |
| 2026-04-25 09:22 | 47.16456 | 10.14061 | 13216 ft | 303 kts | 346° |
| 2026-04-25 09:22 | 47.18506 | 10.13425 | 12849 ft | 300 kts | 346° |
| 2026-04-25 09:23 | 47.20546 | 10.12788 | 12404 ft | 298 kts | 346° |
| 2026-04-25 09:23 | 47.22559 | 10.12160 | 11888 ft | 292 kts | 346° |
| 2026-04-25 09:23 | 47.24551 | 10.11544 | 11214 ft | 293 kts | 346° |
| 2026-04-25 09:23 | 47.26531 | 10.10932 | 10714 ft | 290 kts | 346° |
| 2026-04-25 09:24 | 47.28496 | 10.10323 | 10215 ft | 286 kts | 347° |
| 2026-04-25 09:24 | 47.30441 | 10.09715 | 9681 ft | 283 kts | 346° |
| 2026-04-25 09:24 | 47.32370 | 10.09111 | 9179 ft | 284 kts | 346° |
| 2026-04-25 09:24 | 47.34288 | 10.08510 | 8788 ft | 281 kts | 346° |
| 2026-04-25 09:25 | 47.36201 | 10.07909 | 8432 ft | 280 kts | 346° |
| 2026-04-25 09:25 | 47.38105 | 10.07313 | 8042 ft | 279 kts | 346° |
| 2026-04-25 09:25 | 47.39993 | 10.06723 | 7606 ft | 276 kts | 346° |
| 2026-04-25 09:25 | 47.41781 | 10.05786 | 7112 ft | 272 kts | 326° |
| 2026-04-25 09:26 | 47.43095 | 10.03850 | 6708 ft | 266 kts | 300° |
| 2026-04-25 09:26 | 47.43693 | 10.01309 | 6237 ft | 263 kts | 279° |
| 2026-04-25 09:26 | 47.43982 | 9.98662 | 5744 ft | 264 kts | 278° |
| 2026-04-25 09:26 | 47.44268 | 9.95995 | 5271 ft | 262 kts | 279° |
| 2026-04-25 09:27 | 47.44546 | 9.93395 | 5126 ft | 250 kts | 278° |
| 2026-04-25 09:27 | 47.44809 | 9.90926 | 5019 ft | 238 kts | 278° |
| 2026-04-25 09:27 | 47.45062 | 9.88563 | 4979 ft | 225 kts | 278° |
| 2026-04-25 09:27 | 47.45300 | 9.86343 | 4978 ft | 211 kts | 279° |
| 2026-04-25 09:28 | 47.45525 | 9.84255 | 4983 ft | 199 kts | 278° |
| 2026-04-25 09:28 | 47.45737 | 9.82268 | 4908 ft | 195 kts | 278° |
| 2026-04-25 09:28 | 47.45942 | 9.80348 | 4776 ft | 188 kts | 278° |
| 2026-04-25 09:28 | 47.46144 | 9.78450 | 4580 ft | 186 kts | 278° |
| 2026-04-25 09:29 | 47.46347 | 9.76554 | 4338 ft | 187 kts | 278° |
| 2026-04-25 09:29 | 47.46551 | 9.74645 | 4104 ft | 186 kts | 278° |
| 2026-04-25 09:29 | 47.46747 | 9.72801 | 3864 ft | 180 kts | 277° |
| 2026-04-25 09:29 | 47.46937 | 9.71011 | 3616 ft | 169 kts | 278° |
| 2026-04-25 09:30 | 47.47106 | 9.69421 | 3388 ft | 146 kts | 277° |
| 2026-04-25 09:30 | 47.47257 | 9.68011 | 3137 ft | 132 kts | 278° |
| 2026-04-25 09:30 | 47.47396 | 9.66686 | 2888 ft | 130 kts | 278° |
| 2026-04-25 09:30 | 47.47527 | 9.65372 | 2638 ft | 127 kts | 278° |
| 2026-04-25 09:31 | 47.47652 | 9.64109 | 2410 ft | 121 kts | 278° |
| 2026-04-25 09:31 | 47.47767 | 9.62879 | 2190 ft | 120 kts | 279° |
| 2026-04-25 09:31 | 47.47884 | 9.61664 | 1996 ft | 119 kts | 279° |
| 2026-04-25 09:31 | 47.48020 | 9.60446 | 1835 ft | 121 kts | 281° |
| 2026-04-25 09:32 | 47.48168 | 9.59213 | 1709 ft | 121 kts | 281° |
| 2026-04-25 09:32 | 47.48299 | 9.57978 | 1506 ft | 120 kts | 280° |
| 2026-04-25 09:32 | 47.48427 | 9.56779 | 1328 ft | 116 kts | 281° |
| 2026-04-25 09:32 | 47.48536 | 9.55770 | 1319 ft | 75 kts | 279° |
| 2026-04-25 09:33 | 47.48575 | 9.55399 | 1318 ft | 15 kts | 278° |
| 2026-04-25 09:33 | 47.48600 | 9.55324 | 1317 ft | 7 kts | 343° |
| 2026-04-25 09:33 | 47.48651 | 9.55307 | 1316 ft | 8 kts | 294° |
| 2026-04-25 09:33 | 47.48676 | 9.55246 | 1315 ft | 5 kts | 330° |
| 2026-04-25 09:34 | 47.48708 | 9.55246 | 1315 ft | 4 kts | 6° |
| 2026-04-25 09:34 | 47.48720 | 9.55248 | 1315 ft | 1 kts | 5° |